sensor_id;sensor_type;location;lat;lon;timestamp;P1;durP1;ratioP1;P2;durP2;ratioP2
20731;SDS011;10527;52.124;5.196;2022-11-15T00:01:08;21.20;;;13.57;;
20731;SDS011;10527;52.124;5.196;2022-11-15T00:03:42;23.43;;;13.60;;
20731;SDS011;10527;52.124;5.196;2022-11-15T00:06:10;23.97;;;12.50;;
20731;SDS011;10527;52.124;5.196;2022-11-15T00:08:37;22.77;;;13.30;;
20731;SDS011;10527;52.124;5.196;2022-11-15T00:11:03;26.77;;;14.03;;
20731;SDS011;10527;52.124;5.196;2022-11-15T00:13:30;22.93;;;14.03;;
20731;SDS011;10527;52.124;5.196;2022-11-15T00:15:58;22.00;;;12.50;;
20731;SDS011;10527;52.124;5.196;2022-11-15T00:18:27;26.20;;;13.80;;
20731;SDS011;10527;52.124;5.196;2022-11-15T00:21:10;22.57;;;13.77;;
20731;SDS011;10527;52.124;5.196;2022-11-15T00:23:39;30.33;;;13.97;;
20731;SDS011;10527;52.124;5.196;2022-11-15T00:26:08;24.83;;;12.90;;
20731;SDS011;10527;52.124;5.196;2022-11-15T00:28:40;25.43;;;13.60;;
20731;SDS011;10527;52.124;5.196;2022-11-15T00:31:09;25.03;;;14.00;;
20731;SDS011;10527;52.124;5.196;2022-11-15T00:33:39;25.67;;;15.03;;
20731;SDS011;10527;52.124;5.196;2022-11-15T00:36:10;30.50;;;15.83;;
20731;SDS011;10527;52.124;5.196;2022-11-15T00:38:39;24.70;;;14.50;;
20731;SDS011;10527;52.124;5.196;2022-11-15T00:41:07;28.40;;;14.93;;
20731;SDS011;10527;52.124;5.196;2022-11-15T00:43:35;29.63;;;15.03;;
20731;SDS011;10527;52.124;5.196;2022-11-15T00:46:02;29.37;;;15.47;;
20731;SDS011;10527;52.124;5.196;2022-11-15T00:48:29;28.77;;;14.43;;
20731;SDS011;10527;52.124;5.196;2022-11-15T00:50:57;28.37;;;16.13;;
20731;SDS011;10527;52.124;5.196;2022-11-15T00:53:24;31.27;;;16.43;;
20731;SDS011;10527;52.124;5.196;2022-11-15T00:55:51;29.80;;;16.30;;
20731;SDS011;10527;52.124;5.196;2022-11-15T00:58:17;26.87;;;14.60;;
20731;SDS011;10527;52.124;5.196;2022-11-15T01:00:45;28.57;;;15.47;;
20731;SDS011;10527;52.124;5.196;2022-11-15T01:03:11;31.43;;;15.47;;
20731;SDS011;10527;52.124;5.196;2022-11-15T01:05:38;26.33;;;15.30;;
20731;SDS011;10527;52.124;5.196;2022-11-15T01:08:05;30.23;;;15.83;;
20731;SDS011;10527;52.124;5.196;2022-11-15T01:10:33;32.17;;;15.40;;
20731;SDS011;10527;52.124;5.196;2022-11-15T01:13:00;31.93;;;15.40;;
20731;SDS011;10527;52.124;5.196;2022-11-15T01:15:26;28.53;;;14.87;;
20731;SDS011;10527;52.124;5.196;2022-11-15T01:17:53;25.77;;;14.70;;
20731;SDS011;10527;52.124;5.196;2022-11-15T01:20:20;27.83;;;15.20;;
20731;SDS011;10527;52.124;5.196;2022-11-15T01:22:47;29.60;;;14.43;;
20731;SDS011;10527;52.124;5.196;2022-11-15T01:25:14;26.87;;;14.80;;
20731;SDS011;10527;52.124;5.196;2022-11-15T01:27:41;28.53;;;15.40;;
20731;SDS011;10527;52.124;5.196;2022-11-15T01:30:08;30.73;;;15.60;;
20731;SDS011;10527;52.124;5.196;2022-11-15T01:32:35;30.93;;;14.90;;
20731;SDS011;10527;52.124;5.196;2022-11-15T01:35:02;28.33;;;15.03;;
20731;SDS011;10527;52.124;5.196;2022-11-15T01:37:29;30.57;;;15.93;;
20731;SDS011;10527;52.124;5.196;2022-11-15T01:39:55;31.17;;;15.63;;
20731;SDS011;10527;52.124;5.196;2022-11-15T01:42:22;31.57;;;16.10;;
20731;SDS011;10527;52.124;5.196;2022-11-15T01:44:52;28.80;;;15.07;;
20731;SDS011;10527;52.124;5.196;2022-11-15T01:50:06;26.87;;;14.73;;
20731;SDS011;10527;52.124;5.196;2022-11-15T01:52:42;26.10;;;15.70;;
20731;SDS011;10527;52.124;5.196;2022-11-15T01:55:10;27.30;;;15.57;;
20731;SDS011;10527;52.124;5.196;2022-11-15T01:57:45;27.13;;;15.67;;
20731;SDS011;10527;52.124;5.196;2022-11-15T02:00:17;32.00;;;17.43;;
20731;SDS011;10527;52.124;5.196;2022-11-15T02:02:44;29.20;;;16.10;;
20731;SDS011;10527;52.124;5.196;2022-11-15T02:05:11;36.27;;;17.37;;
20731;SDS011;10527;52.124;5.196;2022-11-15T02:07:38;27.83;;;15.97;;
20731;SDS011;10527;52.124;5.196;2022-11-15T02:10:12;29.60;;;16.30;;
20731;SDS011;10527;52.124;5.196;2022-11-15T02:12:45;31.23;;;17.73;;
20731;SDS011;10527;52.124;5.196;2022-11-15T02:15:13;29.20;;;15.93;;
20731;SDS011;10527;52.124;5.196;2022-11-15T02:30:04;29.43;;;15.57;;
20731;SDS011;10527;52.124;5.196;2022-11-15T02:33:09;26.20;;;15.50;;
20731;SDS011;10527;52.124;5.196;2022-11-15T02:36:01;26.97;;;15.90;;
20731;SDS011;10527;52.124;5.196;2022-11-15T02:38:40;27.50;;;15.87;;
20731;SDS011;10527;52.124;5.196;2022-11-15T02:42:04;32.93;;;16.37;;
20731;SDS011;10527;52.124;5.196;2022-11-15T02:44:57;28.60;;;15.23;;
20731;SDS011;10527;52.124;5.196;2022-11-15T02:47:33;27.73;;;16.73;;
20731;SDS011;10527;52.124;5.196;2022-11-15T02:50:25;26.30;;;15.70;;
20731;SDS011;10527;52.124;5.196;2022-11-15T02:52:58;28.27;;;16.80;;
20731;SDS011;10527;52.124;5.196;2022-11-15T02:55:34;32.07;;;17.67;;
20731;SDS011;10527;52.124;5.196;2022-11-15T03:04:15;24.87;;;16.07;;
20731;SDS011;10527;52.124;5.196;2022-11-15T03:07:01;30.17;;;16.20;;
20731;SDS011;10527;52.124;5.196;2022-11-15T03:12:15;33.30;;;17.60;;
20731;SDS011;10527;52.124;5.196;2022-11-15T03:15:19;26.23;;;15.60;;
20731;SDS011;10527;52.124;5.196;2022-11-15T03:18:10;23.43;;;13.70;;
20731;SDS011;10527;52.124;5.196;2022-11-15T03:20:47;22.97;;;14.37;;
20731;SDS011;10527;52.124;5.196;2022-11-15T03:23:22;25.23;;;15.77;;
20731;SDS011;10527;52.124;5.196;2022-11-15T03:25:52;27.97;;;15.77;;
20731;SDS011;10527;52.124;5.196;2022-11-15T03:28:23;24.93;;;16.30;;
20731;SDS011;10527;52.124;5.196;2022-11-15T03:31:01;23.90;;;15.70;;
20731;SDS011;10527;52.124;5.196;2022-11-15T03:33:51;23.07;;;15.20;;
20731;SDS011;10527;52.124;5.196;2022-11-15T03:36:24;26.43;;;16.30;;
20731;SDS011;10527;52.124;5.196;2022-11-15T03:38:53;24.63;;;14.90;;
20731;SDS011;10527;52.124;5.196;2022-11-15T03:41:37;26.70;;;15.27;;
20731;SDS011;10527;52.124;5.196;2022-11-15T03:44:16;30.10;;;15.30;;
20731;SDS011;10527;52.124;5.196;2022-11-15T03:49:27;26.47;;;15.43;;
20731;SDS011;10527;52.124;5.196;2022-11-15T03:52:00;22.03;;;15.30;;
20731;SDS011;10527;52.124;5.196;2022-11-15T03:54:30;24.20;;;15.07;;
20731;SDS011;10527;52.124;5.196;2022-11-15T03:56:57;26.03;;;15.53;;
20731;SDS011;10527;52.124;5.196;2022-11-15T03:59:24;24.93;;;14.97;;
20731;SDS011;10527;52.124;5.196;2022-11-15T04:01:50;21.17;;;14.50;;
20731;SDS011;10527;52.124;5.196;2022-11-15T04:04:17;26.83;;;15.67;;
20731;SDS011;10527;52.124;5.196;2022-11-15T04:06:44;25.10;;;15.20;;
20731;SDS011;10527;52.124;5.196;2022-11-15T04:09:11;25.43;;;16.03;;
20731;SDS011;10527;52.124;5.196;2022-11-15T04:11:37;21.57;;;13.83;;
20731;SDS011;10527;52.124;5.196;2022-11-15T04:14:04;26.53;;;15.80;;
20731;SDS011;10527;52.124;5.196;2022-11-15T04:16:31;21.30;;;14.77;;
20731;SDS011;10527;52.124;5.196;2022-11-15T04:18:58;22.67;;;14.93;;
20731;SDS011;10527;52.124;5.196;2022-11-15T04:21:43;20.43;;;15.20;;
20731;SDS011;10527;52.124;5.196;2022-11-15T04:24:28;19.53;;;14.10;;
20731;SDS011;10527;52.124;5.196;2022-11-15T04:26:55;19.77;;;15.33;;
20731;SDS011;10527;52.124;5.196;2022-11-15T04:29:21;21.83;;;13.97;;
20731;SDS011;10527;52.124;5.196;2022-11-15T04:32:01;21.90;;;14.00;;
20731;SDS011;10527;52.124;5.196;2022-11-15T04:34:30;21.67;;;14.57;;
20731;SDS011;10527;52.124;5.196;2022-11-15T04:36:57;21.90;;;13.80;;
20731;SDS011;10527;52.124;5.196;2022-11-15T04:39:42;19.30;;;13.53;;
20731;SDS011;10527;52.124;5.196;2022-11-15T04:42:09;15.70;;;12.40;;
20731;SDS011;10527;52.124;5.196;2022-11-15T04:44:36;19.87;;;13.30;;
20731;SDS011;10527;52.124;5.196;2022-11-15T04:47:03;18.43;;;12.87;;
20731;SDS011;10527;52.124;5.196;2022-11-15T04:49:30;18.97;;;14.10;;
20731;SDS011;10527;52.124;5.196;2022-11-15T04:51:57;18.80;;;13.10;;
20731;SDS011;10527;52.124;5.196;2022-11-15T04:54:24;17.60;;;13.23;;
20731;SDS011;10527;52.124;5.196;2022-11-15T04:56:51;18.93;;;13.10;;
20731;SDS011;10527;52.124;5.196;2022-11-15T04:59:18;18.97;;;13.03;;
20731;SDS011;10527;52.124;5.196;2022-11-15T05:01:44;18.87;;;13.87;;
20731;SDS011;10527;52.124;5.196;2022-11-15T05:04:11;18.50;;;13.37;;
20731;SDS011;10527;52.124;5.196;2022-11-15T05:06:47;20.50;;;13.77;;
20731;SDS011;10527;52.124;5.196;2022-11-15T05:09:18;15.93;;;12.43;;
20731;SDS011;10527;52.124;5.196;2022-11-15T05:11:46;17.93;;;12.90;;
20731;SDS011;10527;52.124;5.196;2022-11-15T05:14:14;21.30;;;13.43;;
20731;SDS011;10527;52.124;5.196;2022-11-15T05:16:41;16.03;;;12.73;;
20731;SDS011;10527;52.124;5.196;2022-11-15T05:19:09;17.57;;;12.90;;
20731;SDS011;10527;52.124;5.196;2022-11-15T05:21:36;16.67;;;11.87;;
20731;SDS011;10527;52.124;5.196;2022-11-15T05:24:03;18.63;;;12.90;;
20731;SDS011;10527;52.124;5.196;2022-11-15T05:26:30;16.60;;;12.10;;
20731;SDS011;10527;52.124;5.196;2022-11-15T05:28:59;17.58;;;12.25;;
20731;SDS011;10527;52.124;5.196;2022-11-15T05:31:26;14.80;;;12.10;;
20731;SDS011;10527;52.124;5.196;2022-11-15T05:33:53;17.53;;;12.17;;
20731;SDS011;10527;52.124;5.196;2022-11-15T05:36:33;16.70;;;12.47;;
20731;SDS011;10527;52.124;5.196;2022-11-15T05:39:08;16.77;;;13.00;;
20731;SDS011;10527;52.124;5.196;2022-11-15T05:41:37;16.57;;;12.33;;
20731;SDS011;10527;52.124;5.196;2022-11-15T05:44:22;15.27;;;12.53;;
20731;SDS011;10527;52.124;5.196;2022-11-15T05:46:50;16.97;;;12.40;;
20731;SDS011;10527;52.124;5.196;2022-11-15T05:49:21;16.77;;;12.30;;
20731;SDS011;10527;52.124;5.196;2022-11-15T05:51:57;18.57;;;12.57;;
20731;SDS011;10527;52.124;5.196;2022-11-15T05:54:25;16.93;;;12.17;;
20731;SDS011;10527;52.124;5.196;2022-11-15T05:56:52;16.07;;;12.23;;
20731;SDS011;10527;52.124;5.196;2022-11-15T05:59:19;15.13;;;11.87;;
20731;SDS011;10527;52.124;5.196;2022-11-15T06:01:46;17.30;;;12.00;;
20731;SDS011;10527;52.124;5.196;2022-11-15T06:04:14;18.23;;;12.53;;
20731;SDS011;10527;52.124;5.196;2022-11-15T06:06:41;15.90;;;11.60;;
20731;SDS011;10527;52.124;5.196;2022-11-15T06:09:08;15.57;;;11.33;;
20731;SDS011;10527;52.124;5.196;2022-11-15T06:11:37;15.17;;;11.63;;
20731;SDS011;10527;52.124;5.196;2022-11-15T06:14:04;15.73;;;12.60;;
20731;SDS011;10527;52.124;5.196;2022-11-15T06:16:31;18.80;;;12.27;;
20731;SDS011;10527;52.124;5.196;2022-11-15T06:18:57;17.70;;;12.93;;
20731;SDS011;10527;52.124;5.196;2022-11-15T06:21:25;16.17;;;12.57;;
20731;SDS011;10527;52.124;5.196;2022-11-15T06:23:53;16.42;;;11.43;;
20731;SDS011;10527;52.124;5.196;2022-11-15T06:26:22;14.57;;;12.43;;
20731;SDS011;10527;52.124;5.196;2022-11-15T06:28:49;16.27;;;12.57;;
20731;SDS011;10527;52.124;5.196;2022-11-15T06:31:16;17.97;;;12.57;;
20731;SDS011;10527;52.124;5.196;2022-11-15T06:33:43;21.47;;;12.60;;
20731;SDS011;10527;52.124;5.196;2022-11-15T06:36:10;17.63;;;13.30;;
20731;SDS011;10527;52.124;5.196;2022-11-15T06:38:43;19.65;;;13.02;;
20731;SDS011;10527;52.124;5.196;2022-11-15T06:41:11;17.02;;;12.65;;
20731;SDS011;10527;52.124;5.196;2022-11-15T06:43:40;17.60;;;12.53;;
20731;SDS011;10527;52.124;5.196;2022-11-15T06:46:07;22.77;;;14.57;;
20731;SDS011;10527;52.124;5.196;2022-11-15T06:48:35;17.67;;;12.88;;
20731;SDS011;10527;52.124;5.196;2022-11-15T06:51:03;15.23;;;12.43;;
20731;SDS011;10527;52.124;5.196;2022-11-15T06:53:30;17.17;;;12.90;;
20731;SDS011;10527;52.124;5.196;2022-11-15T06:55:59;18.08;;;12.07;;
20731;SDS011;10527;52.124;5.196;2022-11-15T06:58:28;19.60;;;13.07;;
20731;SDS011;10527;52.124;5.196;2022-11-15T07:01:02;17.00;;;12.07;;
20731;SDS011;10527;52.124;5.196;2022-11-15T07:03:34;15.97;;;11.90;;
20731;SDS011;10527;52.124;5.196;2022-11-15T07:06:04;16.83;;;12.33;;
20731;SDS011;10527;52.124;5.196;2022-11-15T07:08:33;17.35;;;12.77;;
20731;SDS011;10527;52.124;5.196;2022-11-15T07:11:02;15.10;;;12.17;;
20731;SDS011;10527;52.124;5.196;2022-11-15T07:13:33;16.02;;;12.18;;
20731;SDS011;10527;52.124;5.196;2022-11-15T07:16:04;18.23;;;12.10;;
20731;SDS011;10527;52.124;5.196;2022-11-15T07:18:34;15.57;;;11.73;;
20731;SDS011;10527;52.124;5.196;2022-11-15T07:21:05;16.60;;;12.95;;
20731;SDS011;10527;52.124;5.196;2022-11-15T07:23:36;15.52;;;11.95;;
20731;SDS011;10527;52.124;5.196;2022-11-15T07:26:06;17.65;;;11.43;;
20731;SDS011;10527;52.124;5.196;2022-11-15T07:28:34;15.93;;;10.90;;
20731;SDS011;10527;52.124;5.196;2022-11-15T07:31:02;14.65;;;11.02;;
20731;SDS011;10527;52.124;5.196;2022-11-15T07:33:34;15.65;;;10.63;;
20731;SDS011;10527;52.124;5.196;2022-11-15T07:38:35;14.43;;;10.80;;
20731;SDS011;10527;52.124;5.196;2022-11-15T07:41:10;16.02;;;10.95;;
20731;SDS011;10527;52.124;5.196;2022-11-15T07:43:36;12.05;;;10.38;;
20731;SDS011;10527;52.124;5.196;2022-11-15T07:46:04;13.38;;;10.90;;
20731;SDS011;10527;52.124;5.196;2022-11-15T07:48:36;16.13;;;10.00;;
20731;SDS011;10527;52.124;5.196;2022-11-15T07:51:10;14.63;;;10.70;;
20731;SDS011;10527;52.124;5.196;2022-11-15T07:53:43;12.23;;;9.80;;
20731;SDS011;10527;52.124;5.196;2022-11-15T07:56:10;13.10;;;9.97;;
20731;SDS011;10527;52.124;5.196;2022-11-15T07:58:39;15.80;;;10.43;;
20731;SDS011;10527;52.124;5.196;2022-11-15T08:01:10;13.40;;;9.43;;
20731;SDS011;10527;52.124;5.196;2022-11-15T08:03:38;16.38;;;9.60;;
20731;SDS011;10527;52.124;5.196;2022-11-15T08:06:05;17.45;;;9.98;;
20731;SDS011;10527;52.124;5.196;2022-11-15T08:08:32;12.45;;;9.02;;
20731;SDS011;10527;52.124;5.196;2022-11-15T08:10:58;13.50;;;9.48;;
20731;SDS011;10527;52.124;5.196;2022-11-15T08:13:26;13.13;;;9.70;;
20731;SDS011;10527;52.124;5.196;2022-11-15T08:16:00;16.88;;;11.05;;
20731;SDS011;10527;52.124;5.196;2022-11-15T08:18:30;14.23;;;10.55;;
20731;SDS011;10527;52.124;5.196;2022-11-15T08:20:58;13.45;;;9.40;;
20731;SDS011;10527;52.124;5.196;2022-11-15T08:23:30;14.80;;;9.57;;
20731;SDS011;10527;52.124;5.196;2022-11-15T08:25:59;13.10;;;9.40;;
20731;SDS011;10527;52.124;5.196;2022-11-15T08:31:17;12.32;;;8.02;;
20731;SDS011;10527;52.124;5.196;2022-11-15T08:33:44;11.70;;;8.02;;
20731;SDS011;10527;52.124;5.196;2022-11-15T08:36:12;11.50;;;8.80;;
20731;SDS011;10527;52.124;5.196;2022-11-15T08:38:42;12.85;;;7.55;;
20731;SDS011;10527;52.124;5.196;2022-11-15T08:41:09;12.13;;;8.50;;
20731;SDS011;10527;52.124;5.196;2022-11-15T08:43:42;13.13;;;9.00;;
20731;SDS011;10527;52.124;5.196;2022-11-15T08:46:11;12.68;;;8.65;;
20731;SDS011;10527;52.124;5.196;2022-11-15T08:48:39;9.10;;;7.57;;
20731;SDS011;10527;52.124;5.196;2022-11-15T08:51:06;11.75;;;7.53;;
20731;SDS011;10527;52.124;5.196;2022-11-15T08:53:39;11.20;;;7.57;;
20731;SDS011;10527;52.124;5.196;2022-11-15T08:56:07;12.90;;;7.90;;
20731;SDS011;10527;52.124;5.196;2022-11-15T08:58:36;11.63;;;7.78;;
20731;SDS011;10527;52.124;5.196;2022-11-15T09:01:03;8.90;;;7.05;;
20731;SDS011;10527;52.124;5.196;2022-11-15T09:03:31;8.80;;;6.65;;
20731;SDS011;10527;52.124;5.196;2022-11-15T09:05:59;14.35;;;8.50;;
20731;SDS011;10527;52.124;5.196;2022-11-15T09:08:29;10.18;;;7.07;;
20731;SDS011;10527;52.124;5.196;2022-11-15T09:11:17;10.82;;;6.40;;
20731;SDS011;10527;52.124;5.196;2022-11-15T09:13:46;12.00;;;6.45;;
20731;SDS011;10527;52.124;5.196;2022-11-15T09:16:13;8.68;;;7.07;;
20731;SDS011;10527;52.124;5.196;2022-11-15T09:18:41;9.23;;;5.80;;
20731;SDS011;10527;52.124;5.196;2022-11-15T09:21:08;10.57;;;7.13;;
20731;SDS011;10527;52.124;5.196;2022-11-15T09:23:36;8.20;;;6.30;;
20731;SDS011;10527;52.124;5.196;2022-11-15T09:26:03;8.77;;;6.32;;
20731;SDS011;10527;52.124;5.196;2022-11-15T09:28:31;11.02;;;6.75;;
20731;SDS011;10527;52.124;5.196;2022-11-15T09:31:01;9.48;;;6.50;;
20731;SDS011;10527;52.124;5.196;2022-11-15T09:33:31;10.50;;;7.00;;
20731;SDS011;10527;52.124;5.196;2022-11-15T09:36:03;10.45;;;6.65;;
20731;SDS011;10527;52.124;5.196;2022-11-15T09:38:34;7.45;;;5.45;;
20731;SDS011;10527;52.124;5.196;2022-11-15T09:47:10;8.15;;;5.38;;
20731;SDS011;10527;52.124;5.196;2022-11-15T09:50:07;8.30;;;5.45;;
20731;SDS011;10527;52.124;5.196;2022-11-15T09:52:43;8.98;;;5.78;;
20731;SDS011;10527;52.124;5.196;2022-11-15T09:55:11;7.78;;;5.00;;
20731;SDS011;10527;52.124;5.196;2022-11-15T10:03:25;6.32;;;4.47;;
20731;SDS011;10527;52.124;5.196;2022-11-15T10:09:19;5.95;;;3.83;;
20731;SDS011;10527;52.124;5.196;2022-11-15T10:11:55;6.30;;;4.22;;
20731;SDS011;10527;52.124;5.196;2022-11-15T10:14:23;6.05;;;4.35;;
20731;SDS011;10527;52.124;5.196;2022-11-15T10:22:51;6.07;;;3.72;;
20731;SDS011;10527;52.124;5.196;2022-11-15T10:25:32;5.45;;;3.40;;
20731;SDS011;10527;52.124;5.196;2022-11-15T10:30:34;6.95;;;4.20;;
20731;SDS011;10527;52.124;5.196;2022-11-15T10:41:15;4.50;;;3.45;;
20731;SDS011;10527;52.124;5.196;2022-11-15T10:44:29;5.57;;;3.47;;
20731;SDS011;10527;52.124;5.196;2022-11-15T10:49:23;7.70;;;3.90;;
20731;SDS011;10527;52.124;5.196;2022-11-15T10:52:30;5.03;;;3.15;;
20731;SDS011;10527;52.124;5.196;2022-11-15T10:58:21;5.28;;;3.03;;
20731;SDS011;10527;52.124;5.196;2022-11-15T11:04:08;4.40;;;2.33;;
20731;SDS011;10527;52.124;5.196;2022-11-15T11:06:55;4.28;;;2.83;;
20731;SDS011;10527;52.124;5.196;2022-11-15T11:09:38;7.43;;;2.20;;
20731;SDS011;10527;52.124;5.196;2022-11-15T11:12:11;6.30;;;2.08;;
20731;SDS011;10527;52.124;5.196;2022-11-15T11:14:38;3.47;;;1.85;;
20731;SDS011;10527;52.124;5.196;2022-11-15T11:17:10;2.33;;;1.50;;
20731;SDS011;10527;52.124;5.196;2022-11-15T11:20:10;3.17;;;1.30;;
20731;SDS011;10527;52.124;5.196;2022-11-15T11:25:59;3.40;;;1.27;;
20731;SDS011;10527;52.124;5.196;2022-11-15T11:28:54;3.90;;;1.63;;
20731;SDS011;10527;52.124;5.196;2022-11-15T11:32:13;3.70;;;1.27;;
20731;SDS011;10527;52.124;5.196;2022-11-15T11:35:17;3.70;;;1.30;;
20731;SDS011;10527;52.124;5.196;2022-11-15T11:40:39;3.95;;;1.60;;
20731;SDS011;10527;52.124;5.196;2022-11-15T11:53:03;3.75;;;1.45;;
20731;SDS011;10527;52.124;5.196;2022-11-15T11:55:45;5.13;;;1.50;;
20731;SDS011;10527;52.124;5.196;2022-11-15T12:04:04;5.18;;;1.20;;
20731;SDS011;10527;52.124;5.196;2022-11-15T12:06:46;2.05;;;1.05;;
20731;SDS011;10527;52.124;5.196;2022-11-15T12:12:25;4.55;;;1.08;;
20731;SDS011;10527;52.124;5.196;2022-11-15T12:15:04;3.08;;;0.77;;
20731;SDS011;10527;52.124;5.196;2022-11-15T12:17:52;3.67;;;1.00;;
20731;SDS011;10527;52.124;5.196;2022-11-15T12:20:33;1.02;;;0.65;;
20731;SDS011;10527;52.124;5.196;2022-11-15T12:23:11;2.97;;;0.70;;
20731;SDS011;10527;52.124;5.196;2022-11-15T12:25:50;4.00;;;1.27;;
20731;SDS011;10527;52.124;5.196;2022-11-15T12:36:46;5.80;;;1.17;;
20731;SDS011;10527;52.124;5.196;2022-11-15T12:39:17;4.22;;;0.80;;
20731;SDS011;10527;52.124;5.196;2022-11-15T12:47:21;3.03;;;0.85;;
20731;SDS011;10527;52.124;5.196;2022-11-15T12:49:52;5.85;;;0.80;;
20731;SDS011;10527;52.124;5.196;2022-11-15T12:52:19;1.48;;;0.90;;
20731;SDS011;10527;52.124;5.196;2022-11-15T12:54:50;1.58;;;0.73;;
20731;SDS011;10527;52.124;5.196;2022-11-15T13:03:12;2.17;;;0.77;;
20731;SDS011;10527;52.124;5.196;2022-11-15T13:08:39;3.20;;;0.70;;
20731;SDS011;10527;52.124;5.196;2022-11-15T13:19:46;1.10;;;0.43;;
20731;SDS011;10527;52.124;5.196;2022-11-15T13:22:46;4.53;;;0.68;;
20731;SDS011;10527;52.124;5.196;2022-11-15T13:25:47;2.17;;;0.70;;
20731;SDS011;10527;52.124;5.196;2022-11-15T13:31:26;3.55;;;1.05;;
20731;SDS011;10527;52.124;5.196;2022-11-15T13:34:14;4.07;;;0.75;;
20731;SDS011;10527;52.124;5.196;2022-11-15T13:39:46;1.55;;;0.60;;
20731;SDS011;10527;52.124;5.196;2022-11-15T13:44:56;3.80;;;0.70;;
20731;SDS011;10527;52.124;5.196;2022-11-15T13:47:26;2.08;;;0.73;;
20731;SDS011;10527;52.124;5.196;2022-11-15T13:49:59;3.53;;;0.82;;
20731;SDS011;10527;52.124;5.196;2022-11-15T13:52:56;2.38;;;0.70;;
20731;SDS011;10527;52.124;5.196;2022-11-15T13:55:28;3.08;;;0.90;;
20731;SDS011;10527;52.124;5.196;2022-11-15T13:58:06;2.22;;;0.88;;
20731;SDS011;10527;52.124;5.196;2022-11-15T14:00:40;1.95;;;0.75;;
20731;SDS011;10527;52.124;5.196;2022-11-15T14:03:18;4.38;;;1.10;;
20731;SDS011;10527;52.124;5.196;2022-11-15T14:08:58;1.13;;;0.60;;
20731;SDS011;10527;52.124;5.196;2022-11-15T14:12:00;1.48;;;0.90;;
20731;SDS011;10527;52.124;5.196;2022-11-15T14:19:56;1.77;;;0.85;;
20731;SDS011;10527;52.124;5.196;2022-11-15T14:22:25;2.53;;;1.10;;
20731;SDS011;10527;52.124;5.196;2022-11-15T14:28:09;1.30;;;0.80;;
20731;SDS011;10527;52.124;5.196;2022-11-15T14:30:44;1.40;;;0.70;;
20731;SDS011;10527;52.124;5.196;2022-11-15T14:33:20;2.70;;;1.05;;
20731;SDS011;10527;52.124;5.196;2022-11-15T14:36:17;6.25;;;1.17;;
20731;SDS011;10527;52.124;5.196;2022-11-15T14:38:46;2.75;;;0.88;;
20731;SDS011;10527;52.124;5.196;2022-11-15T14:41:21;20.00;;;3.05;;
20731;SDS011;10527;52.124;5.196;2022-11-15T14:43:51;2.72;;;0.80;;
20731;SDS011;10527;52.124;5.196;2022-11-15T14:46:19;1.80;;;0.88;;
20731;SDS011;10527;52.124;5.196;2022-11-15T14:48:46;4.68;;;1.27;;
20731;SDS011;10527;52.124;5.196;2022-11-15T14:51:13;6.88;;;2.33;;
20731;SDS011;10527;52.124;5.196;2022-11-15T14:53:44;1.40;;;0.80;;
20731;SDS011;10527;52.124;5.196;2022-11-15T14:56:13;3.10;;;0.98;;
20731;SDS011;10527;52.124;5.196;2022-11-15T14:58:42;2.15;;;0.77;;
20731;SDS011;10527;52.124;5.196;2022-11-15T15:01:13;2.53;;;0.90;;
20731;SDS011;10527;52.124;5.196;2022-11-15T15:06:47;3.63;;;1.02;;
20731;SDS011;10527;52.124;5.196;2022-11-15T15:09:14;2.58;;;0.80;;
20731;SDS011;10527;52.124;5.196;2022-11-15T15:11:48;3.00;;;1.00;;
20731;SDS011;10527;52.124;5.196;2022-11-15T15:14:15;3.15;;;0.82;;
20731;SDS011;10527;52.124;5.196;2022-11-15T15:16:42;3.45;;;1.00;;
20731;SDS011;10527;52.124;5.196;2022-11-15T15:19:08;3.63;;;0.80;;
20731;SDS011;10527;52.124;5.196;2022-11-15T15:24:32;4.80;;;0.82;;
20731;SDS011;10527;52.124;5.196;2022-11-15T15:27:11;1.80;;;0.95;;
20731;SDS011;10527;52.124;5.196;2022-11-15T15:29:39;1.52;;;0.90;;
20731;SDS011;10527;52.124;5.196;2022-11-15T15:32:07;4.35;;;1.92;;
20731;SDS011;10527;52.124;5.196;2022-11-15T15:34:36;2.72;;;0.63;;
20731;SDS011;10527;52.124;5.196;2022-11-15T15:37:19;2.20;;;0.80;;
20731;SDS011;10527;52.124;5.196;2022-11-15T15:39:51;4.03;;;0.82;;
20731;SDS011;10527;52.124;5.196;2022-11-15T15:42:21;5.07;;;1.67;;
20731;SDS011;10527;52.124;5.196;2022-11-15T15:44:49;3.50;;;1.02;;
20731;SDS011;10527;52.124;5.196;2022-11-15T15:47:18;0.95;;;0.68;;
20731;SDS011;10527;52.124;5.196;2022-11-15T15:49:48;2.72;;;0.82;;
20731;SDS011;10527;52.124;5.196;2022-11-15T15:52:16;1.52;;;0.68;;
20731;SDS011;10527;52.124;5.196;2022-11-15T15:54:43;7.70;;;0.70;;
20731;SDS011;10527;52.124;5.196;2022-11-15T15:57:11;2.30;;;0.90;;
20731;SDS011;10527;52.124;5.196;2022-11-15T15:59:39;0.80;;;0.50;;
20731;SDS011;10527;52.124;5.196;2022-11-15T16:02:08;1.83;;;0.60;;
20731;SDS011;10527;52.124;5.196;2022-11-15T16:04:41;2.45;;;0.90;;
20731;SDS011;10527;52.124;5.196;2022-11-15T16:09:47;2.67;;;0.50;;
20731;SDS011;10527;52.124;5.196;2022-11-15T16:12:35;2.38;;;0.65;;
20731;SDS011;10527;52.124;5.196;2022-11-15T16:15:02;1.30;;;0.65;;
20731;SDS011;10527;52.124;5.196;2022-11-15T16:17:33;2.83;;;0.63;;
20731;SDS011;10527;52.124;5.196;2022-11-15T16:20:04;2.08;;;0.65;;
20731;SDS011;10527;52.124;5.196;2022-11-15T16:22:31;1.27;;;0.65;;
20731;SDS011;10527;52.124;5.196;2022-11-15T16:24:58;1.73;;;0.90;;
20731;SDS011;10527;52.124;5.196;2022-11-15T16:27:25;2.38;;;0.80;;
20731;SDS011;10527;52.124;5.196;2022-11-15T16:29:52;2.35;;;0.90;;
20731;SDS011;10527;52.124;5.196;2022-11-15T16:32:18;3.75;;;0.85;;
20731;SDS011;10527;52.124;5.196;2022-11-15T16:34:45;3.83;;;1.15;;
20731;SDS011;10527;52.124;5.196;2022-11-15T16:37:21;2.45;;;0.90;;
20731;SDS011;10527;52.124;5.196;2022-11-15T16:39:49;3.63;;;1.20;;
20731;SDS011;10527;52.124;5.196;2022-11-15T16:42:17;2.25;;;0.90;;
20731;SDS011;10527;52.124;5.196;2022-11-15T16:44:44;3.90;;;0.80;;
20731;SDS011;10527;52.124;5.196;2022-11-15T16:47:17;2.33;;;0.75;;
20731;SDS011;10527;52.124;5.196;2022-11-15T16:49:45;3.55;;;1.27;;
20731;SDS011;10527;52.124;5.196;2022-11-15T16:52:12;1.67;;;0.93;;
20731;SDS011;10527;52.124;5.196;2022-11-15T16:54:46;3.03;;;1.60;;
20731;SDS011;10527;52.124;5.196;2022-11-15T16:57:19;5.22;;;1.90;;
20731;SDS011;10527;52.124;5.196;2022-11-15T16:59:45;2.97;;;1.50;;
20731;SDS011;10527;52.124;5.196;2022-11-15T17:02:12;3.38;;;1.02;;
20731;SDS011;10527;52.124;5.196;2022-11-15T17:04:43;4.07;;;1.10;;
20731;SDS011;10527;52.124;5.196;2022-11-15T17:07:11;3.70;;;1.02;;
20731;SDS011;10527;52.124;5.196;2022-11-15T17:09:37;2.45;;;0.95;;
20731;SDS011;10527;52.124;5.196;2022-11-15T17:12:04;0.95;;;0.70;;
20731;SDS011;10527;52.124;5.196;2022-11-15T17:14:31;1.17;;;0.60;;
20731;SDS011;10527;52.124;5.196;2022-11-15T17:16:59;2.67;;;0.82;;
20731;SDS011;10527;52.124;5.196;2022-11-15T17:19:26;3.17;;;0.70;;
20731;SDS011;10527;52.124;5.196;2022-11-15T17:21:52;1.83;;;0.80;;
20731;SDS011;10527;52.124;5.196;2022-11-15T17:24:27;1.60;;;0.90;;
20731;SDS011;10527;52.124;5.196;2022-11-15T17:26:54;3.40;;;0.90;;
20731;SDS011;10527;52.124;5.196;2022-11-15T17:29:21;4.15;;;1.35;;
20731;SDS011;10527;52.124;5.196;2022-11-15T17:31:48;2.85;;;0.90;;
20731;SDS011;10527;52.124;5.196;2022-11-15T17:34:14;2.08;;;0.98;;
20731;SDS011;10527;52.124;5.196;2022-11-15T17:36:43;1.67;;;0.93;;
20731;SDS011;10527;52.124;5.196;2022-11-15T17:39:10;2.65;;;0.93;;